Time;durP1;ratioP1;P1;durP2;ratioP2;P2;SDS_P1;SDS_P2;PMS_P1;PMS_P2;Temp;Humidity;BMP_temperature;BMP_pressure;BME280_temperature;BME280_humidity;BME280_pressure;Samples;Min_cycle;Max_cycle;Signal;HPM_P1;HPM_P2
2022/10/31 05:21:50;;;;;;;7.65;2.20;;;;;;;5.98;100.00;99404.30;1579366;88;21058;-76
2022/10/31 05:24:21;;;;;;;8.53;1.45;;;;;;;5.99;100.00;99410.00;1614086;88;20920;-81
2022/10/31 05:26:48;;;;;;;7.05;2.20;;;;;;;6.03;100.00;99420.04;1590597;89;21060;-74
2022/10/31 05:29:15;;;;;;;5.42;2.50;;;;;;;6.03;100.00;99420.04;1589382;88;21013;-78
2022/10/31 05:31:42;;;;;;;11.95;2.77;;;;;;;6.01;100.00;99430.41;1594930;87;21071;-80
2022/10/31 05:34:10;;;;;;;5.60;2.00;;;;;;;6.01;100.00;99430.41;1580000;88;21058;-74
2022/10/31 05:36:55;;;;;;;9.28;2.25;;;;;;;6.03;100.00;99444.56;1576642;89;21025;-72
2022/10/31 05:39:23;;;;;;;7.28;2.27;;;;;;;6.03;100.00;99445.11;1581679;89;21097;-80
2022/10/31 05:41:51;;;;;;;7.28;1.95;;;;;;;6.06;100.00;99449.98;1604192;88;21550;-72
2022/10/31 05:44:26;;;;;;;8.40;2.00;;;;;;;6.06;100.00;99449.98;1610111;88;20991;-76
2022/10/31 05:46:57;;;;;;;6.55;2.83;;;;;;;6.06;100.00;99452.16;1593710;88;21181;-75
2022/10/31 05:49:43;;;;;;;7.65;2.02;;;;;;;6.05;100.00;99451.90;1586632;88;21063;-78
2022/10/31 05:52:29;;;;;;;9.13;1.85;;;;;;;6.08;100.00;99461.41;1582158;89;21017;-75
2022/10/31 05:54:57;;;;;;;6.05;1.50;;;;;;;6.08;100.00;99461.41;1586190;89;21005;-75
2022/10/31 05:57:24;;;;;;;9.38;1.77;;;;;;;6.10;100.00;99464.11;1574046;90;20977;-74
2022/10/31 05:59:55;;;;;;;7.78;1.82;;;;;;;6.13;100.00;99472.27;1574579;88;21814;-74
2022/10/31 06:02:23;;;;;;;9.50;2.02;;;;;;;6.16;100.00;99481.23;1595604;88;20933;-74
2022/10/31 06:05:08;;;;;;;7.15;2.08;;;;;;;6.16;100.00;99482.59;1604290;88;20999;-75
2022/10/31 06:07:35;;;;;;;9.68;2.58;;;;;;;6.21;100.00;99487.44;1591711;89;21486;-69
2022/10/31 06:10:04;;;;;;;5.60;1.82;;;;;;;6.26;100.00;99492.03;1611800;87;21574;-74
2022/10/31 06:12:37;;;;;;;5.17;1.67;;;;;;;6.33;100.00;99495.78;1619495;87;20915;-72
2022/10/31 06:15:13;;;;;;;6.92;1.72;;;;;;;6.35;100.00;99492.21;1618248;87;20914;-74
2022/10/31 06:17:39;;;;;;;4.78;1.57;;;;;;;6.53;100.00;99500.44;1620517;88;21518;-76
2022/10/31 06:20:10;;;;;;;5.60;1.52;;;;;;;7.01;100.00;99499.56;1579464;89;21068;-72
2022/10/31 06:22:39;;;;;;;5.20;1.75;;;;;;;7.50;100.00;99516.90;1605486;88;20983;-72
2022/10/31 06:25:07;;;;;;;4.78;1.60;;;;;;;7.62;100.00;99519.41;1558457;89;21161;-72
2022/10/31 06:27:36;;;;;;;4.37;1.32;;;;;;;7.58;100.00;99521.66;1586146;87;20989;-72
2022/10/31 06:30:07;;;;;;;5.50;1.67;;;;;;;7.60;100.00;99534.47;1620170;87;20970;-71
2022/10/31 06:32:36;;;;;;;5.53;2.05;;;;;;;7.91;100.00;99544.37;1620168;87;20996;-72
2022/10/31 06:35:04;;;;;;;5.45;1.65;;;;;;;8.32;99.16;99543.11;1598685;89;20945;-73
2022/10/31 06:37:32;;;;;;;5.58;2.80;;;;;;;8.72;93.99;99528.42;1595991;89;21243;-71
2022/10/31 06:40:00;;;;;;;7.15;1.90;;;;;;;9.02;90.09;99537.39;1595250;89;21494;-76
2022/10/31 06:42:27;;;;;;;14.33;3.42;;;;;;;9.35;89.27;99544.07;1595857;90;21009;-72
2022/10/31 06:44:55;;;;;;;8.33;1.50;;;;;;;9.52;84.19;99540.94;1595775;90;20993;-71
2022/10/31 06:47:40;;;;;;;6.72;1.80;;;;;;;9.65;84.37;99550.24;1595965;90;21520;-71
2022/10/31 06:50:08;;;;;;;4.92;1.85;;;;;;;9.87;83.39;99548.87;1595778;89;21157;-74
2022/10/31 06:52:35;;;;;;;6.37;1.25;;;;;;;10.21;77.89;99546.97;1595808;90;20953;-67
2022/10/31 06:55:05;;;;;;;4.83;1.20;;;;;;;10.38;77.98;99558.61;1595821;89;20937;-72
2022/10/31 06:57:32;;;;;;;3.45;1.17;;;;;;;10.65;77.82;99563.66;1595944;90;20910;-72
2022/10/31 06:59:58;;;;;;;4.53;1.42;;;;;;;10.99;75.71;99559.66;1595489;89;21568;-71
2022/10/31 07:02:27;;;;;;;2.17;1.22;;;;;;;11.31;73.07;99561.77;1588314;90;21042;-70
2022/10/31 07:04:53;;;;;;;4.10;1.30;;;;;;;11.38;68.14;99558.80;1596030;89;20929;-72
2022/10/31 07:07:21;;;;;;;6.28;1.65;;;;;;;11.31;70.14;99566.70;1595873;90;21515;-72
2022/10/31 07:09:49;;;;;;;5.92;2.33;;;;;;;11.35;67.59;99567.69;1595698;89;21577;-72
2022/10/31 07:12:17;;;;;;;7.25;1.30;;;;;;;11.25;68.07;99566.05;1595972;90;21044;-71
2022/10/31 07:14:45;;;;;;;4.40;0.93;;;;;;;11.31;66.05;99564.52;1595500;89;21157;-79
2022/10/31 07:17:15;;;;;;;4.40;1.20;;;;;;;11.38;66.33;99571.73;1576162;90;38715;-74
2022/10/31 07:19:43;;;;;;;3.77;0.95;;;;;;;11.46;64.00;99571.75;1595866;90;21005;-75
2022/10/31 07:22:10;;;;;;;5.28;1.02;;;;;;;11.49;62.42;99577.98;1595824;90;21021;-72
2022/10/31 07:24:38;;;;;;;5.47;1.45;;;;;;;11.54;62.43;99577.83;1595793;90;20985;-75
2022/10/31 07:27:17;;;;;;;5.62;1.15;;;;;;;11.77;64.30;99579.88;1595904;90;21140;-71
2022/10/31 07:29:45;;;;;;;7.97;1.70;;;;;;;12.22;64.45;99584.45;1592334;88;21147;-72
2022/10/31 07:32:12;;;;;;;3.65;1.40;;;;;;;12.54;61.80;99583.68;1583472;90;20899;-73
2022/10/31 07:34:41;;;;;;;4.40;1.32;;;;;;;12.69;58.43;99583.16;1622358;87;21160;-71
2022/10/31 07:37:18;;;;;;;3.75;1.70;;;;;;;12.65;58.52;99580.01;1611173;87;21587;-71
2022/10/31 07:39:45;;;;;;;3.33;1.80;;;;;;;12.65;56.22;99590.45;1625512;87;21240;-72
2022/10/31 07:42:12;;;;;;;3.15;1.20;;;;;;;12.58;56.96;99597.03;1616130;87;21038;-71
2022/10/31 07:44:40;;;;;;;5.72;1.20;;;;;;;12.45;55.60;99600.22;1598546;88;20962;-74
2022/10/31 07:47:08;;;;;;;6.22;1.55;;;;;;;12.53;54.00;99599.39;1602229;88;20943;-75
2022/10/31 07:49:53;;;;;;;4.40;1.10;;;;;;;12.59;53.04;99595.90;1590109;89;21505;-72
2022/10/31 07:52:38;;;;;;;4.10;0.95;;;;;;;12.54;52.67;99600.20;1616828;87;21522;-72
2022/10/31 07:55:24;;;;;;;2.30;1.00;;;;;;;12.55;52.54;99602.63;1588640;89;21455;-73
2022/10/31 07:58:05;;;;;;;2.42;1.10;;;;;;;12.76;52.94;99606.84;1615779;88;21027;-75
2022/10/31 08:00:35;;;;;;;4.35;1.20;;;;;;;12.98;51.40;99607.75;1600810;88;21225;-74
2022/10/31 08:03:16;;;;;;;3.80;1.02;;;;;;;13.11;51.73;99608.91;1607221;87;21046;-74
2022/10/31 08:05:56;;;;;;;3.02;1.00;;;;;;;13.33;48.79;99605.08;1606308;88;21045;-70
2022/10/31 08:08:29;;;;;;;2.17;0.93;;;;;;;13.47;45.50;99598.76;1571850;89;20974;-75
2022/10/31 08:10:58;;;;;;;3.85;0.80;;;;;;;13.55;46.57;99591.58;1604207;88;21051;-73
2022/10/31 08:13:25;;;;;;;1.45;0.75;;;;;;;13.75;45.04;99605.97;1606606;88;21002;-74
2022/10/31 08:15:55;;;;;;;4.08;1.10;;;;;;;13.82;44.71;99604.86;1581826;89;21037;-77
2022/10/31 08:18:25;;;;;;;2.52;0.85;;;;;;;13.70;45.10;99602.59;1589671;88;21901;-77
2022/10/31 08:20:53;;;;;;;4.97;1.10;;;;;;;13.92;46.51;99610.53;1565692;88;21015;-82
2022/10/31 08:23:20;;;;;;;3.85;0.85;;;;;;;14.20;44.56;99609.41;1580371;89;21003;-84
2022/10/31 08:25:48;;;;;;;1.72;0.72;;;;;;;14.33;43.50;99597.27;1620410;88;21040;-75
2022/10/31 08:28:15;;;;;;;2.65;0.90;;;;;;;14.41;42.17;99601.11;1578300;89;20917;-76
2022/10/31 08:30:43;;;;;;;1.98;1.25;;;;;;;14.27;41.00;99619.91;1595967;89;21148;-81
2022/10/31 08:33:30;;;;;;;7.75;1.05;;;;;;;14.31;40.65;99618.89;1532685;93;21056;-84
2022/10/31 08:36:15;;;;;;;8.83;1.37;;;;;;;14.37;41.64;99617.55;1518393;92;21134;-81
2022/10/31 08:38:44;;;;;;;1.70;1.10;;;;;;;14.66;43.26;99618.57;1545910;89;21452;-89
2022/10/31 08:41:13;;;;;;;2.95;1.72;;;;;;;14.82;39.66;99622.30;1595643;90;20933;-74
2022/10/31 08:43:40;;;;;;;5.20;1.27;;;;;;;14.72;40.05;99616.63;1595979;90;21175;-77
2022/10/31 08:46:07;;;;;;;1.80;0.90;;;;;;;14.61;38.87;99629.27;1595717;90;21615;-77
2022/10/31 08:48:34;;;;;;;5.33;2.27;;;;;;;14.44;37.60;99619.19;1595896;90;21511;-77
2022/10/31 08:51:01;;;;;;;2.52;0.90;;;;;;;14.33;38.20;99625.47;1595940;90;21520;-75
2022/10/31 08:53:28;;;;;;;2.55;1.32;;;;;;;14.42;38.54;99619.32;1596011;90;21029;-75
2022/10/31 09:07:31;;;;;;;5.55;1.17;;;;;;;15.32;35.03;99626.15;1556027;90;20971;-81
2022/10/31 09:09:59;;;;;;;2.58;1.07;;;;;;;14.82;35.30;99624.48;1553854;91;21196;-87
2022/10/31 09:12:26;;;;;;;4.75;1.00;;;;;;;14.91;35.24;99623.59;1570252;88;22361;-74
2022/10/31 09:15:08;;;;;;;4.80;1.37;;;;;;;15.10;36.57;99624.62;1571838;89;21026;-71
2022/10/31 09:17:49;;;;;;;3.20;0.95;;;;;;;15.39;35.40;99626.38;1611537;89;20961;-70
2022/10/31 09:20:18;;;;;;;2.83;1.10;;;;;;;15.29;33.79;99621.31;1595580;87;22175;-78
2022/10/31 09:22:45;;;;;;;2.05;1.45;;;;;;;15.07;34.98;99623.93;1613804;88;21024;-76
2022/10/31 09:25:12;;;;;;;7.03;1.30;;;;;;;15.10;35.52;99631.54;1611854;87;21176;-77
2022/10/31 09:27:39;;;;;;;4.92;1.10;;;;;;;15.28;34.98;99623.84;1610085;88;20996;-74
2022/10/31 09:30:10;;;;;;;2.58;0.90;;;;;;;15.43;34.18;99626.50;1614839;88;21055;-76
2022/10/31 09:32:38;;;;;;;7.20;1.22;;;;;;;15.69;33.83;99625.56;1612950;88;21076;-75
2022/10/31 09:35:08;;;;;;;3.00;1.10;;;;;;;15.84;32.75;99626.23;1617741;87;20970;-73
2022/10/31 09:37:35;;;;;;;2.95;1.40;;;;;;;15.67;31.91;99637.56;1621195;87;21161;-75
2022/10/31 09:40:03;;;;;;;2.20;0.90;;;;;;;15.73;33.35;99632.02;1616072;88;20938;-75
2022/10/31 09:42:55;;;;;;;3.72;1.32;;;;;;;16.14;34.15;99625.36;1619679;86;21053;-73
2022/10/31 09:45:33;;;;;;;6.42;1.92;;;;;;;16.49;31.47;99629.71;1609755;88;21005;-73
2022/10/31 09:48:16;;;;;;;1.80;1.05;;;;;;;16.56;30.98;99620.80;1614089;88;21472;-75
2022/10/31 09:51:07;;;;;;;3.10;1.02;;;;;;;16.73;30.65;99618.32;1615886;88;22180;-76
2022/10/31 09:53:56;;;;;;;2.42;1.00;;;;;;;16.89;30.87;99622.47;1618793;87;20985;-72
2022/10/31 09:56:24;;;;;;;2.20;1.10;;;;;;;16.98;31.18;99627.27;1617513;87;21267;-73
2022/10/31 09:59:00;;;;;;;4.78;1.55;;;;;;;16.93;28.70;99614.47;1624059;88;20993;-72
2022/10/31 10:02:02;;;;;;;3.72;0.88;;;;;;;16.66;30.02;99620.89;1616989;88;20964;-72
2022/10/31 10:04:50;;;;;;;6.85;1.67;;;;;;;16.70;31.09;99617.64;1617967;88;24139;-73
2022/10/31 10:07:46;;;;;;;2.83;1.07;;;;;;;16.88;29.96;99630.56;1608275;87;21032;-73
2022/10/31 10:10:45;;;;;;;2.67;0.82;;;;;;;16.98;29.61;99632.23;1608548;87;20931;-71
2022/10/31 10:13:24;;;;;;;2.05;1.00;;;;;;;17.01;30.18;99633.49;1609978;87;20939;-72
2022/10/31 10:16:09;;;;;;;1.95;0.98;;;;;;;16.97;29.03;99630.63;1614889;87;21038;-72
2022/10/31 10:18:51;;;;;;;2.30;0.90;;;;;;;16.86;28.73;99625.95;1591952;88;21247;-72
2022/10/31 10:21:59;;;;;;;6.28;1.10;;;;;;;16.79;28.90;99634.89;1596758;88;21032;-75
2022/10/31 10:24:50;;;;;;;1.85;1.00;;;;;;;16.97;28.70;99620.11;1593827;88;21103;-76
2022/10/31 10:28:03;;;;;;;1.35;0.88;;;;;;;17.13;28.36;99623.12;1617398;88;21042;-75
2022/10/31 10:30:54;;;;;;;3.22;1.35;;;;;;;17.32;28.41;99617.45;1600711;88;21091;-77
2022/10/31 10:33:33;;;;;;;3.15;0.82;;;;;;;16.92;26.97;99623.95;1596195;89;21519;-73
2022/10/31 10:36:02;;;;;;;1.40;0.80;;;;;;;16.45;29.64;99617.72;1595809;89;21033;-76
2022/10/31 10:38:40;;;;;;;2.15;1.07;;;;;;;16.54;28.72;99614.80;1595149;89;20964;-73
2022/10/31 10:41:18;;;;;;;1.95;0.90;;;;;;;16.70;28.68;99619.83;1595940;89;20985;-77
2022/10/31 10:43:44;;;;;;;4.72;1.05;;;;;;;16.73;27.82;99625.25;1595892;89;21418;-76
2022/10/31 10:49:21;;;;;;;2.37;0.70;;;;;;;16.46;29.15;99617.95;1595757;89;20882;-74
2022/10/31 10:52:30;;;;;;;2.25;0.80;;;;;;;16.60;27.56;99612.58;1595825;88;21515;-71
2022/10/31 10:55:25;;;;;;;2.85;0.80;;;;;;;16.72;28.23;99626.41;1592516;88;21044;-73
2022/10/31 10:58:02;;;;;;;4.58;1.87;;;;;;;16.92;26.86;99620.37;1586357;89;21045;-71
2022/10/31 11:00:34;;;;;;;2.52;1.22;;;;;;;16.75;28.25;99625.70;1611711;88;21140;-76
2022/10/31 11:03:02;;;;;;;3.52;1.62;;;;;;;16.57;26.82;99629.91;1598107;89;21529;-72
2022/10/31 11:05:58;;;;;;;1.92;1.15;;;;;;;16.37;27.55;99633.11;1601011;89;20967;-77
2022/10/31 11:08:26;;;;;;;1.90;0.78;;;;;;;16.48;27.42;99618.41;1601460;88;20933;-73
2022/10/31 11:11:19;;;;;;;4.20;1.00;;;;;;;16.55;28.50;99623.92;1579973;89;20988;-73
2022/10/31 11:13:48;;;;;;;1.82;0.95;;;;;;;16.95;27.49;99628.79;1608150;89;21186;-73
2022/10/31 11:16:38;;;;;;;1.65;0.62;;;;;;;17.09;28.08;99636.67;1572828;88;21633;-76
2022/10/31 11:19:15;;;;;;;2.12;1.10;;;;;;;17.29;27.16;99631.45;1585120;89;21040;-73
2022/10/31 11:21:42;;;;;;;1.52;0.70;;;;;;;17.37;25.41;99624.08;1604077;88;21461;-73
2022/10/31 11:24:15;;;;;;;1.25;0.62;;;;;;;17.11;27.25;99626.84;1603251;88;20919;-74
2022/10/31 11:26:44;;;;;;;2.60;0.95;;;;;;;17.06;25.99;99621.55;1612496;87;21290;-77
2022/10/31 11:29:25;;;;;;;1.75;0.70;;;;;;;17.00;26.12;99627.14;1590058;89;21046;-78
2022/10/31 11:31:55;;;;;;;1.62;0.70;;;;;;;17.06;27.33;99628.48;1587668;89;21060;-78
2022/10/31 11:34:33;;;;;;;1.65;1.00;;;;;;;17.48;26.04;99625.95;1604274;89;20922;-75
2022/10/31 11:37:20;;;;;;;2.05;1.00;;;;;;;17.55;25.99;99629.48;1605693;88;21021;-72
2022/10/31 11:39:53;;;;;;;2.90;1.10;;;;;;;17.68;26.69;99626.05;1604249;88;21182;-71
2022/10/31 11:42:23;;;;;;;1.57;0.82;;;;;;;18.09;26.09;99625.95;1572842;90;20923;-77
2022/10/31 11:44:51;;;;;;;3.35;1.27;;;;;;;18.37;26.70;99622.98;1600308;88;20991;-76
2022/10/31 11:47:26;;;;;;;3.83;1.37;;;;;;;18.61;24.80;99617.70;1614350;87;21096;-74
2022/10/31 11:49:53;;;;;;;3.30;1.12;;;;;;;18.42;24.44;99631.83;1609134;88;21168;-74
2022/10/31 11:52:26;;;;;;;3.37;0.70;;;;;;;18.15;24.35;99630.86;1606442;88;21982;-70
2022/10/31 11:55:15;;;;;;;1.50;0.85;;;;;;;17.94;25.72;99632.37;1602018;88;20951;-73
2022/10/31 11:57:45;;;;;;;1.67;0.90;;;;;;;18.09;26.37;99627.34;1605976;87;20894;-72
2022/10/31 12:00:30;;;;;;;3.52;1.60;;;;;;;18.32;25.21;99629.63;1597596;88;21150;-72
2022/10/31 12:03:19;;;;;;;4.85;1.55;;;;;;;18.11;24.01;99627.20;1597893;88;21097;-73
2022/10/31 12:05:49;;;;;;;1.72;0.93;;;;;;;17.73;25.19;99637.68;1601720;88;21548;-72
2022/10/31 12:08:16;;;;;;;2.50;1.25;;;;;;;17.66;24.35;99626.41;1600327;88;20966;-70
2022/10/31 12:10:57;;;;;;;2.22;1.20;;;;;;;17.56;25.39;99610.86;1592174;88;20904;-76
2022/10/31 12:13:36;;;;;;;2.42;1.40;;;;;;;17.53;24.76;99622.67;1597475;88;21142;-72
2022/10/31 12:16:22;;;;;;;3.90;1.05;;;;;;;17.32;25.65;99617.45;1585542;88;21146;-73
2022/10/31 12:19:19;;;;;;;6.80;1.30;;;;;;;17.36;25.77;99627.44;1610913;88;21288;-73
2022/10/31 12:22:05;;;;;;;3.67;1.05;;;;;;;17.60;24.96;99624.23;1604560;88;21010;-74
2022/10/31 12:24:44;;;;;;;1.12;0.72;;;;;;;17.72;24.91;99626.94;1562481;88;21009;-74
2022/10/31 12:27:52;;;;;;;1.62;0.60;;;;;;;17.67;25.09;99622.47;1602847;88;21546;-73
2022/10/31 12:30:26;;;;;;;4.60;0.80;;;;;;;17.70;25.82;99619.55;1569635;88;21034;-72
2022/10/31 12:33:36;;;;;;;1.12;0.62;;;;;;;18.09;24.49;99621.20;1584879;89;21618;-73
2022/10/31 12:36:39;;;;;;;1.87;0.80;;;;;;;18.24;24.88;99611.20;1603117;88;21182;-73
2022/10/31 12:39:45;;;;;;;2.77;1.20;;;;;;;18.03;24.49;99623.24;1625702;86;20920;-74
2022/10/31 12:42:35;;;;;;;2.85;1.10;;;;;;;17.65;24.79;99619.25;1603801;88;20979;-78
2022/10/31 12:45:53;;;;;;;5.67;1.25;;;;;;;17.46;25.19;99618.56;1602565;88;21028;-75
2022/10/31 12:48:25;;;;;;;1.67;0.80;;;;;;;17.46;25.22;99621.34;1566786;89;21282;-74
2022/10/31 12:51:25;;;;;;;4.65;1.00;;;;;;;17.62;25.83;99611.61;1615918;86;21023;-73
2022/10/31 12:54:15;;;;;;;3.70;1.55;;;;;;;17.84;25.62;99622.66;1615194;87;21554;-74
2022/10/31 12:57:09;;;;;;;6.12;1.30;;;;;;;18.06;25.55;99624.71;1617440;87;20896;-73
2022/10/31 12:59:46;;;;;;;5.53;2.62;;;;;;;17.81;24.64;99633.09;1574888;89;21454;-69
2022/10/31 13:02:36;;;;;;;9.15;3.40;;;;;;;17.56;25.78;99637.22;1621641;85;21820;-72
2022/10/31 13:05:17;;;;;;;7.28;3.15;;;;;;;17.69;25.03;99635.41;1609125;87;21026;-71
2022/10/31 13:08:10;;;;;;;6.72;2.80;;;;;;;17.77;25.60;99641.34;1604893;89;20979;-74
2022/10/31 13:10:49;;;;;;;12.37;3.17;;;;;;;17.87;24.71;99647.51;1611385;87;21083;-73
2022/10/31 13:13:29;;;;;;;4.87;1.55;;;;;;;17.77;25.75;99653.84;1592936;89;21431;-72
2022/10/31 13:16:07;;;;;;;3.80;1.62;;;;;;;17.81;24.56;99642.81;1605439;87;21880;-71
2022/10/31 13:18:49;;;;;;;4.00;1.47;;;;;;;17.71;24.84;99646.14;1621146;87;21476;-70
2022/10/31 13:21:24;;;;;;;4.62;1.32;;;;;;;17.44;24.89;99645.06;1615460;87;21104;-73
2022/10/31 13:23:54;;;;;;;2.20;1.22;;;;;;;17.09;25.24;99655.52;1589976;88;20950;-73
2022/10/31 13:26:42;;;;;;;4.08;1.15;;;;;;;16.65;26.08;99651.16;1575710;88;21035;-74
2022/10/31 13:29:33;;;;;;;5.65;1.25;;;;;;;16.26;26.92;99653.58;1569185;89;21146;-72
2022/10/31 13:32:06;;;;;;;3.52;1.30;;;;;;;16.14;26.33;99652.25;1588431;88;21524;-71
2022/10/31 13:34:49;;;;;;;2.80;1.37;;;;;;;16.07;26.97;99657.58;1605962;88;20921;-68
2022/10/31 13:37:37;;;;;;;3.90;1.27;;;;;;;16.02;26.34;99659.20;1574399;88;21044;-70
2022/10/31 13:40:47;;;;;;;31.30;5.30;;;;;;;15.84;27.73;99664.19;1602053;88;21070;-70
2022/10/31 13:43:28;;;;;;;7.95;3.30;;;;;;;15.71;27.89;99666.16;1603840;88;21908;-75
2022/10/31 13:45:56;;;;;;;11.78;4.25;;;;;;;15.26;27.97;99667.63;1602357;89;20987;-75
2022/10/31 13:48:28;;;;;;;4.15;2.47;;;;;;;14.51;28.86;99666.40;1598463;87;21037;-70
2022/10/31 13:50:59;;;;;;;5.65;2.37;;;;;;;13.92;29.26;99674.00;1610941;88;20976;-77
2022/10/31 13:53:47;;;;;;;7.87;2.52;;;;;;;13.27;30.48;99685.58;1617474;88;21467;-80
2022/10/31 13:56:22;;;;;;;4.50;2.17;;;;;;;12.73;31.22;99686.00;1614680;88;21339;-78
2022/10/31 13:59:11;;;;;;;5.17;2.20;;;;;;;12.23;32.24;99692.04;1587026;88;21275;-76
2022/10/31 14:01:37;;;;;;;3.17;1.98;;;;;;;11.92;32.67;99685.06;1585315;88;21053;-72
2022/10/31 14:04:18;;;;;;;6.95;2.15;;;;;;;11.69;33.45;99699.45;1568659;88;21294;-73
2022/10/31 14:07:14;;;;;;;8.13;2.60;;;;;;;11.52;33.76;99709.30;1589636;88;21033;-77
2022/10/31 14:10:05;;;;;;;6.65;2.90;;;;;;;11.43;34.54;99710.39;1573250;88;21746;-79
2022/10/31 14:12:41;;;;;;;8.20;2.65;;;;;;;11.29;34.46;99714.61;1615008;88;21022;-80
2022/10/31 14:15:26;;;;;;;17.42;4.10;;;;;;;11.05;35.00;99712.22;1620957;87;21042;-76
2022/10/31 14:17:56;;;;;;;6.20;2.55;;;;;;;10.84;35.91;99708.41;1617394;87;20983;-76
2022/10/31 14:20:39;;;;;;;5.70;2.08;;;;;;;10.70;36.03;99716.71;1590898;89;21592;-74
2022/10/31 14:23:32;;;;;;;7.37;2.47;;;;;;;10.62;35.00;99714.71;1588256;89;21743;-75
2022/10/31 14:26:26;;;;;;;;;;;;;;;10.48;35.78;99715.33;1578387;88;21238;-84
2022/10/31 14:29:03;;;;;;;12.73;5.20;;;;;;;10.30;36.30;99714.95;1607046;89;20425;-70
2022/10/31 14:31:54;;;;;;;22.37;7.37;;;;;;;10.12;36.36;99724.92;1597587;88;20985;-71
2022/10/31 14:34:38;;;;;;;13.62;6.22;;;;;;;10.05;37.25;99719.86;1589352;88;21061;-72
2022/10/31 14:37:50;;;;;;;21.23;7.60;;;;;;;10.02;36.96;99732.00;1601508;89;21853;-72
2022/10/31 14:41:00;;;;;;;9.83;5.10;;;;;;;9.89;38.26;99722.12;1601082;88;20992;-72
2022/10/31 14:43:34;;;;;;;10.60;4.08;;;;;;;9.74;38.14;99727.14;1530301;91;21086;-71
2022/10/31 14:46:19;;;;;;;13.83;5.17;;;;;;;9.57;38.90;99736.78;1542316;90;21115;-72
2022/10/31 14:49:06;;;;;;;11.63;5.20;;;;;;;9.47;38.62;99736.98;1558575;89;21584;-76
2022/10/31 14:51:41;;;;;;;9.70;4.50;;;;;;;9.36;38.80;99745.14;1595997;89;21597;-71
2022/10/31 14:54:19;;;;;;;16.73;6.40;;;;;;;9.25;40.57;99739.03;1596656;88;21002;-71
2022/10/31 14:56:53;;;;;;;14.87;6.67;;;;;;;9.14;40.37;99745.02;1595109;89;21058;-73
2022/10/31 14:59:24;;;;;;;20.88;7.33;;;;;;;8.93;41.53;99745.93;1579709;89;20971;-78
2022/10/31 15:02:11;;;;;;;17.12;7.10;;;;;;;8.74;41.99;99754.18;1584208;89;21099;-74
2022/10/31 15:04:37;;;;;;;16.97;8.10;;;;;;;8.62;41.79;99752.48;1578224;90;21199;-74
2022/10/31 15:07:09;;;;;;;20.77;9.08;;;;;;;8.45;42.02;99747.54;1593028;89;21007;-73
2022/10/31 15:09:37;;;;;;;22.77;8.23;;;;;;;8.34;42.63;99756.19;1600104;89;26681;-73
2022/10/31 15:12:31;;;;;;;19.57;9.18;;;;;;;8.22;43.99;99754.67;1571144;89;21047;-72
2022/10/31 15:15:20;;;;;;;27.58;10.75;;;;;;;8.12;44.10;99757.55;1602202;88;21053;-74
2022/10/31 15:17:54;;;;;;;47.85;17.07;;;;;;;8.00;45.36;99759.11;1574290;89;21214;-74
2022/10/31 15:20:26;;;;;;;77.10;31.42;;;;;;;7.89;45.19;99764.71;1585569;89;21469;-76
2022/10/31 15:22:58;;;;;;;82.12;34.40;;;;;;;7.82;45.55;99764.80;1586869;89;20970;-75
2022/10/31 15:25:28;;;;;;;73.57;27.93;;;;;;;7.75;46.12;99771.98;1594728;90;20982;-75
2022/10/31 15:27:56;;;;;;;68.80;27.77;;;;;;;7.63;47.53;99768.30;1594716;90;20906;-72
2022/10/31 15:30:26;;;;;;;68.35;25.43;;;;;;;7.50;48.59;99773.11;1575243;90;21567;-77
2022/10/31 15:32:54;;;;;;;62.10;25.50;;;;;;;7.37;50.35;99777.08;1601137;88;20979;-80
2022/10/31 15:35:30;;;;;;;64.65;24.85;;;;;;;7.15;52.00;99773.47;1592067;89;21011;-81
2022/10/31 15:37:58;;;;;;;55.63;23.02;;;;;;;6.94;52.64;99776.93;1591317;89;21229;-76
2022/10/31 15:40:26;;;;;;;59.00;22.67;;;;;;;6.71;53.58;99781.78;1600144;87;20964;-86
2022/10/31 15:43:02;;;;;;;57.33;23.05;;;;;;;6.50;54.76;99779.74;1594472;88;20960;-76
2022/10/31 15:45:30;;;;;;;68.35;28.15;;;;;;;6.32;55.62;99776.34;1586522;87;20982;-80
2022/10/31 15:48:18;;;;;;;75.12;31.05;;;;;;;6.17;55.95;99783.51;1594054;87;21043;-81
2022/10/31 15:50:52;;;;;;;97.55;38.23;;;;;;;6.06;56.75;99779.75;1598382;88;21007;-77
2022/10/31 15:53:50;;;;;;;89.97;30.95;;;;;;;5.99;56.11;99776.52;1605053;88;21180;-76
2022/10/31 15:56:29;;;;;;;82.05;32.95;;;;;;;5.93;58.11;99783.34;1601994;88;21175;-77
2022/10/31 15:58:59;;;;;;;88.45;36.50;;;;;;;5.85;58.45;99793.43;1595204;88;21126;-78
2022/10/31 16:01:31;;;;;;;73.72;33.85;;;;;;;5.74;58.87;99793.23;1612717;88;20935;-77
2022/10/31 16:04:05;;;;;;;80.80;36.00;;;;;;;5.64;59.77;99797.34;1589831;87;21466;-75
2022/10/31 16:06:34;;;;;;;78.72;32.38;;;;;;;5.55;60.88;99796.28;1601287;87;21537;-77
2022/10/31 16:09:00;;;;;;;75.72;33.67;;;;;;;5.45;61.81;99803.11;1573844;89;21191;-76
2022/10/31 16:11:35;;;;;;;118.15;35.30;;;;;;;5.35;62.36;99800.41;1596135;88;21094;-81
2022/10/31 16:14:21;;;;;;;90.87;38.45;;;;;;;5.24;62.66;99806.41;1603010;87;20971;-78
2022/10/31 16:16:53;;;;;;;84.67;37.58;;;;;;;5.10;63.23;99806.17;1593673;88;21066;-83
2022/10/31 16:19:27;;;;;;;90.05;39.75;;;;;;;4.96;64.03;99814.06;1589393;88;27616;-79
2022/10/31 16:22:11;;;;;;;127.10;39.78;;;;;;;4.86;64.48;99815.42;1585156;89;21160;-77
2022/10/31 16:25:02;;;;;;;127.55;41.05;;;;;;;4.78;65.19;99815.96;1601986;88;21078;-76
2022/10/31 16:27:31;;;;;;;90.72;39.45;;;;;;;4.67;65.97;99817.58;1598979;88;21016;-77
2022/10/31 16:30:01;;;;;;;97.85;41.30;;;;;;;4.55;66.22;99815.96;1594650;88;20946;-76
2022/10/31 16:32:34;;;;;;;85.10;39.08;;;;;;;4.46;66.67;99812.68;1596367;89;21036;-76
2022/10/31 16:35:18;;;;;;;86.20;37.90;;;;;;;4.37;67.28;99813.75;1585065;88;21758;-77
2022/10/31 16:37:45;;;;;;;87.57;37.78;;;;;;;4.28;68.14;99814.00;1617027;88;20929;-77
2022/10/31 16:40:13;;;;;;;90.42;39.83;;;;;;;4.21;68.26;99815.61;1619692;88;20989;-76
2022/10/31 16:42:41;;;;;;;86.05;36.33;;;;;;;4.16;68.88;99815.59;1616559;88;21496;-75
2022/10/31 16:45:24;;;;;;;74.65;34.33;;;;;;;4.08;69.90;99816.64;1599878;88;21039;-77
2022/10/31 16:47:51;;;;;;;77.85;34.35;;;;;;;4.03;70.06;99816.12;1570474;88;21260;-77
2022/10/31 16:50:22;;;;;;;84.03;36.10;;;;;;;3.94;70.65;99819.88;1588930;88;21027;-76
2022/10/31 16:52:52;;;;;;;74.65;33.78;;;;;;;3.90;71.36;99816.61;1601911;89;20955;-77
2022/10/31 16:55:21;;;;;;;75.75;31.80;;;;;;;3.84;72.12;99823.09;1595481;87;21119;-74
2022/10/31 16:57:55;;;;;;;73.55;30.05;;;;;;;3.79;72.50;99821.71;1602035;87;21079;-75
2022/10/31 17:00:30;;;;;;;66.20;28.95;;;;;;;3.72;73.43;99827.38;1601568;89;21802;-76
2022/10/31 17:02:59;;;;;;;70.62;30.30;;;;;;;3.65;74.15;99830.88;1604548;88;20943;-73
2022/10/31 17:05:29;;;;;;;58.92;26.15;;;;;;;3.59;74.71;99831.92;1604021;88;21057;-76
2022/10/31 17:07:59;;;;;;;59.55;24.43;;;;;;;3.53;75.23;99833.78;1568053;89;21115;-77
2022/10/31 17:10:33;;;;;;;56.15;24.90;;;;;;;3.47;75.66;99844.33;1628645;86;21074;-77
2022/10/31 17:13:17;;;;;;;53.68;24.52;;;;;;;3.41;76.21;99844.59;1576729;90;21158;-76
2022/10/31 17:15:59;;;;;;;56.50;24.00;;;;;;;3.36;76.73;99849.45;1605111;88;21564;-77
2022/10/31 17:18:27;;;;;;;53.15;23.87;;;;;;;3.30;77.39;99851.30;1584421;89;21736;-78
2022/10/31 17:21:02;;;;;;;57.98;24.85;;;;;;;3.26;77.65;99847.48;1599159;88;21025;-79
2022/10/31 17:23:32;;;;;;;56.90;26.60;;;;;;;3.21;77.87;99848.80;1562713;89;21182;-76
2022/10/31 17:26:07;;;;;;;62.35;26.55;;;;;;;3.18;78.26;99857.99;1573476;89;21626;-77
2022/10/31 17:28:38;;;;;;;54.30;24.07;;;;;;;3.11;78.77;99860.10;1633760;86;21062;-82
2022/10/31 17:31:20;;;;;;;50.58;23.57;;;;;;;3.05;78.94;99863.31;1606535;88;21159;-78
2022/10/31 17:33:50;;;;;;;53.53;23.97;;;;;;;3.03;79.56;99864.11;1583167;90;21065;-76
2022/10/31 17:36:20;;;;;;;112.32;26.10;;;;;;;2.97;79.65;99867.84;1599102;87;20968;-77
2022/10/31 17:38:55;;;;;;;50.00;21.17;;;;;;;2.94;80.17;99871.08;1582624;89;21705;-79
2022/10/31 17:41:24;;;;;;;49.90;20.30;;;;;;;2.91;80.53;99865.63;1587086;88;21591;-77
2022/10/31 17:44:00;;;;;;;54.48;20.57;;;;;;;2.87;81.13;99869.96;1619915;87;21207;-79
2022/10/31 17:46:36;;;;;;;50.38;20.12;;;;;;;2.82;80.93;99872.63;1613172;87;21489;-78
2022/10/31 17:49:06;;;;;;;49.15;19.87;;;;;;;2.78;81.16;99876.11;1620095;87;21048;-77
2022/10/31 17:51:37;;;;;;;45.98;18.48;;;;;;;2.74;81.20;99875.80;1623588;86;21459;-79